Coeur D'Alene - Pappy Boyington Field
KCOE : now visible

Aeroporto :











RITROVATECI SU...

 
LOGIN :

Iscrizione | Disclaimer

   EN    FR    IT 

 









Sommario :    VFR   VFR Marginale   IFR   IFR Intensivo   IFR Molto Intensivo
Visibilità : 
Base nubi : 
>= 8 km
>= 3000ft
5 / 8 km
1000 / 3000 ft
1500m / 5 km
500 / 1000 ft
800 / 1500m
200 / 500 ft
< 800m
< 200 ft
Simboli :   Temporali  Nebbia  Neve Forte  Precipitazioni Forti  Vento > 20 kt






- Altitudine del aeroporto : 2320 ft


KCOE - Coeur D'Alene - Pappy Boyington Field

ULTIMO METAR :
  • 011156Z AUTO 18004KT 10SM CLR M04/M04 A3046 RMK AO2 SLP358 70013 T10391044 10017 21039 51020 FZRANO

METARs OBSOLETI :
  • 011056Z AUTO 21003KT 10SM CLR M03/M04 A3043 RMK AO2 SLP349 T10331044 FZRANO
  • 010956Z AUTO 00000KT 10SM CLR M03/M04 A3042 RMK AO2 SLP345 T10331044 FZRANO

TAF KCOE
Valido dal 01 a 12 ore il 02 a 12 ore UTC


011132Z 0112/0212 23005KT 6SM BR FEW002 SCT015
FM011400 22003KT P6SM SCT012 OVC025
FM011900 VRB03KT P6SM BKN015
FM012200 06004KT P6SM SCT015
FM020400 03008KT P6SM SCT025
FIR KZSE / America del Nord



MetMap, La meteo Aeronautica in un colpo d'occhio ! - Copyright ORBIFLY Dicembre 2007 - Disclaimer

ORBIFLY MET'MAP TEAM :

Programmazione e sviluppo : Alexandra Zaïnal
Concezione : Baudouin d'Aumeries
Aiuto per la programmazione : Marc-Olivier Méhu
Supporto tecnico e logistico : Manuel Goepfert
Aiuto per la traduzione : Arnaldo La Scala

Contatto : metmap@orbifly.com




FONTI E CREDITI :

   NOAA       Earth
Advisory